createdAt,value
2023-01-11T00:00:59.195Z,6.43
2023-01-11T00:03:29.197Z,8.77
2023-01-11T00:06:00.131Z,9.33
2023-01-11T00:08:32.789Z,10.67
2023-01-11T00:11:03.512Z,7.50
2023-01-11T00:13:34.212Z,10.50
2023-01-11T00:16:08.990Z,9.03
2023-01-11T00:18:39.152Z,7.13
2023-01-11T00:21:10.170Z,8.57
2023-01-11T00:23:42.730Z,7.70
2023-01-11T00:26:15.869Z,10.90
2023-01-11T00:28:45.880Z,9.93
2023-01-11T00:31:15.925Z,11.70
2023-01-11T00:33:46.088Z,10.80
2023-01-11T00:36:16.077Z,8.20
2023-01-11T00:38:51.887Z,12.03
2023-01-11T00:41:35.227Z,7.90
2023-01-11T00:44:18.071Z,13.47
2023-01-11T00:47:00.561Z,15.20
2023-01-11T00:49:30.744Z,10.50
2023-01-11T00:52:00.833Z,6.87
2023-01-11T00:54:33.413Z,8.33
2023-01-11T00:57:03.492Z,8.27
2023-01-11T00:59:33.548Z,8.43
2023-01-11T01:02:03.634Z,14.83
2023-01-11T01:04:33.738Z,11.00
2023-01-11T01:07:03.773Z,9.30
2023-01-11T01:09:36.590Z,7.00
2023-01-11T01:12:09.326Z,7.20
2023-01-11T01:14:37.078Z,8.93
2023-01-11T01:17:09.881Z,13.60
2023-01-11T01:19:41.452Z,12.20
2023-01-11T01:22:11.388Z,8.17
2023-01-11T01:24:44.003Z,7.63
2023-01-11T01:27:17.790Z,11.67
2023-01-11T01:29:47.713Z,10.73
2023-01-11T01:32:17.682Z,11.07
2023-01-11T01:34:47.705Z,9.53
2023-01-11T01:37:17.687Z,7.67
2023-01-11T01:39:50.365Z,9.90
2023-01-11T01:42:24.181Z,8.03
2023-01-11T01:45:01.355Z,6.67
2023-01-11T01:47:46.873Z,9.70
2023-01-11T01:50:23.310Z,9.17
2023-01-11T01:52:56.297Z,11.20
2023-01-11T01:55:34.072Z,8.17
2023-01-11T01:58:07.504Z,10.13
2023-01-11T02:00:37.544Z,7.17
2023-01-11T02:03:07.648Z,5.87
2023-01-11T02:05:37.982Z,8.57
2023-01-11T02:08:13.721Z,9.87
2023-01-11T02:10:46.635Z,7.47
2023-01-11T02:13:17.147Z,8.90
2023-01-11T02:15:47.200Z,5.77
2023-01-11T02:18:19.693Z,7.67
2023-01-11T02:21:06.277Z,8.37
2023-01-11T02:23:57.447Z,6.23
2023-01-11T02:26:59.219Z,8.27
2023-01-11T02:29:45.209Z,6.03
2023-01-11T02:32:29.059Z,3.97
2023-01-11T02:35:10.953Z,8.40
2023-01-11T02:37:50.773Z,5.67
2023-01-11T02:40:28.175Z,8.70
2023-01-11T02:43:17.962Z,6.53
2023-01-11T02:45:55.530Z,6.93
2023-01-11T02:48:33.759Z,9.20
2023-01-11T02:51:08.703Z,7.67
2023-01-11T02:53:42.607Z,6.90
2023-01-11T02:56:15.414Z,7.67
2023-01-11T02:58:51.845Z,5.13
2023-01-11T03:01:25.722Z,6.87
2023-01-11T03:03:56.769Z,5.30
2023-01-11T03:06:29.821Z,5.70
2023-01-11T03:09:20.315Z,5.27
2023-01-11T03:12:17.341Z,7.37
2023-01-11T03:14:54.721Z,7.77
2023-01-11T03:17:40.240Z,7.00
2023-01-11T03:20:16.059Z,6.53
2023-01-11T03:22:56.140Z,5.43
2023-01-11T03:25:33.750Z,5.00
2023-01-11T03:28:12.218Z,5.07
2023-01-11T03:30:51.751Z,5.37
2023-01-11T03:33:31.821Z,7.60
2023-01-11T03:36:10.236Z,5.70
2023-01-11T03:38:48.221Z,9.33
2023-01-11T03:41:24.078Z,6.17
2023-01-11T03:43:57.133Z,7.00
2023-01-11T03:46:31.483Z,7.33
2023-01-11T03:49:08.761Z,4.20
2023-01-11T03:51:44.012Z,6.70
2023-01-11T03:54:17.813Z,8.07
2023-01-11T03:56:55.269Z,4.10
2023-01-11T03:59:25.906Z,6.83
2023-01-11T04:01:56.519Z,4.80
2023-01-11T04:04:29.702Z,4.93
2023-01-11T04:06:59.757Z,5.27
2023-01-11T04:09:29.755Z,6.90
2023-01-11T04:11:59.729Z,8.57
2023-01-11T04:14:29.738Z,3.30
2023-01-11T04:16:59.708Z,6.67
2023-01-11T04:19:32.368Z,5.50
2023-01-11T04:22:02.396Z,3.53
2023-01-11T04:24:41.526Z,3.83
2023-01-11T04:27:11.428Z,5.13
2023-01-11T04:29:41.430Z,6.53
2023-01-11T04:32:11.347Z,9.13
2023-01-11T04:34:44.057Z,5.13
2023-01-11T04:37:14.863Z,5.37
2023-01-11T04:39:44.859Z,8.97
2023-01-11T04:42:25.028Z,6.40
2023-01-11T04:44:57.117Z,4.63
2023-01-11T04:47:27.906Z,7.33
2023-01-11T04:50:00.574Z,5.90
2023-01-11T04:52:30.550Z,5.77
2023-01-11T04:55:03.098Z,5.07
2023-01-11T04:57:33.036Z,6.57
2023-01-11T05:00:03.001Z,5.93
2023-01-11T05:03:01.872Z,3.20
2023-01-11T05:05:34.487Z,4.07
2023-01-11T05:08:05.459Z,5.10
2023-01-11T05:10:35.652Z,3.20
2023-01-11T05:13:05.617Z,9.27
2023-01-11T05:15:37.603Z,6.33
2023-01-11T05:18:07.655Z,7.70
2023-01-11T05:20:40.219Z,6.47
2023-01-11T05:23:10.177Z,5.60
2023-01-11T05:25:40.130Z,6.17
2023-01-11T05:28:10.044Z,3.73
2023-01-11T05:30:42.206Z,3.50
2023-01-11T05:33:12.164Z,8.13
2023-01-11T05:35:44.746Z,8.40
2023-01-11T05:38:14.736Z,5.83
2023-01-11T05:40:44.774Z,6.40
2023-01-11T05:43:14.901Z,5.20
2023-01-11T05:45:42.346Z,7.10
2023-01-11T05:48:12.329Z,3.90
2023-01-11T05:50:45.119Z,3.47
2023-01-11T05:53:15.064Z,5.30
2023-01-11T05:55:54.928Z,4.47
2023-01-11T05:58:25.777Z,7.47
2023-01-11T06:00:58.085Z,6.97
2023-01-11T06:03:29.429Z,5.33
2023-01-11T06:06:02.961Z,5.53
2023-01-11T06:08:32.928Z,5.37
2023-01-11T06:11:06.013Z,4.63
2023-01-11T06:13:36.129Z,5.40
2023-01-11T06:16:07.993Z,8.17
2023-01-11T06:18:39.936Z,5.53
2023-01-11T06:21:13.657Z,4.60
2023-01-11T06:23:45.882Z,9.83
2023-01-11T06:26:18.414Z,6.97
2023-01-11T06:28:49.341Z,6.53
2023-01-11T06:31:19.566Z,6.83
2023-01-11T06:33:50.137Z,5.80
2023-01-11T06:36:22.869Z,4.03
2023-01-11T06:38:52.916Z,7.63
2023-01-11T06:41:22.886Z,4.40
2023-01-11T06:43:53.913Z,2.93
2023-01-11T06:46:24.318Z,5.30
2023-01-11T06:48:54.459Z,6.27
2023-01-11T06:51:27.009Z,4.73
2023-01-11T06:53:57.027Z,5.90
2023-01-11T06:56:26.980Z,4.30
2023-01-11T06:58:56.979Z,4.60
2023-01-11T07:01:28.630Z,6.97
2023-01-11T07:03:58.856Z,7.87
2023-01-11T07:06:32.173Z,4.73
2023-01-11T07:09:02.163Z,4.93
2023-01-11T07:11:34.937Z,4.43
2023-01-11T07:14:04.934Z,2.93
2023-01-11T07:16:35.094Z,6.13
2023-01-11T07:19:05.011Z,6.10
2023-01-11T07:21:37.551Z,5.20
2023-01-11T07:24:11.048Z,6.53
2023-01-11T07:26:42.055Z,3.93
2023-01-11T07:29:12.718Z,3.53
2023-01-11T07:31:42.698Z,4.77
2023-01-11T07:34:12.671Z,5.23
2023-01-11T07:36:45.406Z,4.80
2023-01-11T07:39:15.500Z,3.47
2023-01-11T07:41:57.829Z,5.93
2023-01-11T07:44:27.780Z,6.07
2023-01-11T07:46:58.351Z,4.57
2023-01-11T07:49:28.526Z,4.70
2023-01-11T07:52:01.159Z,3.97
2023-01-11T07:54:31.150Z,7.23
2023-01-11T07:57:01.164Z,5.77
2023-01-11T07:59:34.008Z,5.20
2023-01-11T08:02:04.021Z,4.53
2023-01-11T08:04:36.346Z,5.13
2023-01-11T08:07:08.906Z,4.10
2023-01-11T08:09:38.861Z,5.73
2023-01-11T08:12:21.837Z,3.93
2023-01-11T08:14:52.489Z,6.23
2023-01-11T08:17:22.440Z,5.23
2023-01-11T08:19:52.598Z,4.40
2023-01-11T08:22:25.364Z,4.77
2023-01-11T08:25:02.567Z,4.73
2023-01-11T08:27:32.523Z,3.87
2023-01-11T08:30:02.500Z,5.03
2023-01-11T08:32:32.906Z,6.57
2023-01-11T08:35:02.898Z,6.23
2023-01-11T08:37:35.580Z,3.93
2023-01-11T08:40:05.750Z,4.40
2023-01-11T08:42:38.007Z,4.00
2023-01-11T08:45:09.028Z,4.80
2023-01-11T08:47:39.000Z,4.63
2023-01-11T08:50:09.787Z,5.67
2023-01-11T08:52:54.631Z,9.00
2023-01-11T08:55:24.661Z,4.47
2023-01-11T08:57:54.641Z,5.27
2023-01-11T09:00:24.894Z,4.77
2023-01-11T09:02:54.911Z,5.00
2023-01-11T09:05:24.911Z,6.37
2023-01-11T09:07:57.551Z,2.83
2023-01-11T09:10:27.868Z,5.50
2023-01-11T09:12:57.875Z,4.13
2023-01-11T09:15:28.319Z,5.47
2023-01-11T09:17:58.610Z,3.23
2023-01-11T09:20:28.644Z,4.50
2023-01-11T09:23:01.280Z,5.67
2023-01-11T09:25:31.207Z,4.70
2023-01-11T09:28:01.241Z,4.47
2023-01-11T09:30:31.391Z,2.40
2023-01-11T09:33:01.448Z,2.80
2023-01-11T09:35:49.307Z,2.13
2023-01-11T09:38:22.070Z,3.50
2023-01-11T09:41:01.798Z,3.00
2023-01-11T09:43:33.307Z,8.43
2023-01-11T09:46:09.257Z,3.47
2023-01-11T09:48:44.672Z,4.17
2023-01-11T09:51:16.566Z,3.10
2023-01-11T09:53:52.411Z,4.03
2023-01-11T09:56:27.495Z,3.77
2023-01-11T09:59:06.643Z,2.53
2023-01-11T10:01:42.814Z,7.10
2023-01-11T10:04:46.062Z,2.80
2023-01-11T10:07:43.550Z,7.83
2023-01-11T10:18:28.983Z,4.47
2023-01-11T10:19:39.833Z,6.37
2023-01-11T10:22:19.920Z,3.10
2023-01-11T10:24:56.398Z,2.60
2023-01-11T10:27:37.315Z,4.60
2023-01-11T10:30:33.348Z,3.03
2023-01-11T10:33:18.406Z,3.87
2023-01-11T10:36:14.922Z,2.77
2023-01-11T10:38:59.270Z,3.90
2023-01-11T10:41:38.801Z,4.47
2023-01-11T10:44:24.580Z,3.50
2023-01-11T10:47:00.063Z,2.63
2023-01-11T10:49:43.312Z,3.67
2023-01-11T10:52:39.058Z,3.83
2023-01-11T10:55:16.985Z,3.73
2023-01-11T10:58:01.437Z,3.20
2023-01-11T11:00:45.086Z,3.53
2023-01-11T11:03:41.400Z,4.40
2023-01-11T11:06:16.728Z,4.73
2023-01-11T11:08:54.426Z,6.37
2023-01-11T11:11:32.774Z,3.30
2023-01-11T11:14:11.462Z,3.47
2023-01-11T11:16:56.418Z,3.20
2023-01-11T11:19:32.279Z,4.03
2023-01-11T11:22:08.224Z,5.37
2023-01-11T11:24:41.964Z,4.53
2023-01-11T11:27:23.649Z,4.87
2023-01-11T11:29:55.723Z,4.20
2023-01-11T11:32:36.790Z,3.63
2023-01-11T11:35:09.044Z,4.00
2023-01-11T11:37:44.898Z,4.43
2023-01-11T11:40:31.613Z,4.37
2023-01-11T11:43:21.015Z,7.87
2023-01-11T11:45:55.859Z,7.00
2023-01-11T11:48:31.503Z,5.37
2023-01-11T11:51:04.069Z,4.70
2023-01-11T11:53:43.096Z,4.90
2023-01-11T11:56:22.919Z,7.33
2023-01-11T11:58:53.890Z,5.30
2023-01-11T12:01:27.555Z,4.90
2023-01-11T12:04:03.743Z,5.10
2023-01-11T12:06:34.008Z,5.73
2023-01-11T12:09:06.251Z,4.67
2023-01-11T12:11:42.081Z,5.37
2023-01-11T12:14:20.709Z,5.20
2023-01-11T12:16:50.740Z,5.40
2023-01-11T12:19:38.059Z,4.73
2023-01-11T12:22:18.531Z,6.20
2023-01-11T12:25:05.098Z,5.93
2023-01-11T12:27:43.530Z,4.90
2023-01-11T12:30:22.739Z,5.00
2023-01-11T12:33:16.028Z,5.43
2023-01-11T12:35:58.910Z,8.27
2023-01-11T12:38:40.885Z,6.07
2023-01-11T12:41:50.387Z,5.10
2023-01-11T12:44:39.410Z,5.67
2023-01-11T12:47:40.841Z,9.03
2023-01-11T12:50:14.557Z,6.13
2023-01-11T12:52:59.183Z,5.90
2023-01-11T12:55:43.116Z,5.90
2023-01-11T12:58:19.987Z,6.27
2023-01-11T13:01:14.830Z,6.43
2023-01-11T13:04:06.440Z,5.20
2023-01-11T13:06:46.269Z,5.97
2023-01-11T13:09:32.810Z,6.20
2023-01-11T13:12:15.584Z,6.27
2023-01-11T13:15:01.847Z,6.00
2023-01-11T13:17:40.312Z,5.83
2023-01-11T13:20:28.311Z,5.57
2023-01-11T13:23:05.259Z,6.50
2023-01-11T13:25:42.080Z,6.23
2023-01-11T13:28:24.373Z,6.30
2023-01-11T13:30:54.890Z,5.70
2023-01-11T13:33:27.688Z,7.97
2023-01-11T13:36:07.496Z,6.73
2023-01-11T13:38:45.587Z,5.97
2023-01-11T13:41:22.150Z,6.07
2023-01-11T13:44:00.417Z,6.03
2023-01-11T13:46:46.999Z,5.70
2023-01-11T13:49:28.352Z,7.10
2023-01-11T13:52:02.878Z,5.73
2023-01-11T13:54:41.619Z,5.83
2023-01-11T13:57:40.923Z,5.50
2023-01-11T14:00:23.491Z,6.23
2023-01-11T14:03:01.661Z,6.43
2023-01-11T14:05:42.969Z,5.27
2023-01-11T14:08:29.121Z,5.83
2023-01-11T14:11:08.699Z,5.80
2023-01-11T14:14:18.225Z,5.33
2023-01-11T14:17:11.401Z,6.83
2023-01-11T14:19:47.306Z,6.27
2023-01-11T14:22:26.537Z,5.50
2023-01-11T14:25:03.685Z,6.43
2023-01-11T14:28:05.970Z,6.30
2023-01-11T14:30:54.949Z,5.23
2023-01-11T14:33:56.110Z,5.93
2023-01-11T14:36:47.226Z,6.10
2023-01-11T14:39:50.912Z,5.93
2023-01-11T14:42:43.580Z,5.47
2023-01-11T14:45:29.311Z,6.50
2023-01-11T14:48:24.772Z,6.60
2023-01-11T14:51:12.384Z,8.17
2023-01-11T14:53:49.019Z,7.30
2023-01-11T14:56:40.032Z,6.80
2023-01-11T14:59:26.045Z,6.83
2023-01-11T15:02:18.204Z,6.93
2023-01-11T15:05:10.275Z,7.80
2023-01-11T15:07:44.313Z,10.80
2023-01-11T15:10:49.896Z,19.67
2023-01-11T15:13:24.550Z,8.07
2023-01-11T15:16:21.466Z,7.50
2023-01-11T15:18:51.552Z,7.23
2023-01-11T15:21:27.697Z,8.10
2023-01-11T15:24:01.914Z,8.27
2023-01-11T15:26:31.994Z,8.73
2023-01-11T15:29:04.217Z,8.70
2023-01-11T15:31:50.608Z,8.80
2023-01-11T15:34:26.387Z,7.97
2023-01-11T15:37:26.097Z,9.00
2023-01-11T15:40:01.610Z,9.57
2023-01-11T15:43:09.709Z,9.50
2023-01-11T15:46:24.708Z,9.00
2023-01-11T15:49:14.602Z,8.43
2023-01-11T15:52:06.059Z,8.70
2023-01-11T15:55:10.526Z,8.17
2023-01-11T15:58:15.233Z,8.47
2023-01-11T16:01:06.271Z,12.10
2023-01-11T16:03:59.628Z,7.53
2023-01-11T16:06:43.415Z,8.87
2023-01-11T16:09:33.952Z,6.80
2023-01-11T16:12:30.566Z,7.60
2023-01-11T16:15:28.893Z,7.57
2023-01-11T16:18:03.938Z,25.27
2023-01-11T16:20:34.140Z,13.97
2023-01-11T16:23:07.489Z,7.60
2023-01-11T16:25:41.673Z,8.50
2023-01-11T16:28:21.538Z,8.40
2023-01-11T16:30:58.962Z,7.53
2023-01-11T16:33:30.988Z,8.43
2023-01-11T16:36:14.855Z,9.27
2023-01-11T16:38:59.833Z,10.13
2023-01-11T16:41:35.029Z,11.13
2023-01-11T16:44:11.757Z,9.50
2023-01-11T16:47:12.175Z,9.30
2023-01-11T16:49:43.336Z,8.97
2023-01-11T16:52:39.346Z,21.37
2023-01-11T16:55:27.379Z,11.90
2023-01-11T16:58:01.247Z,13.13
2023-01-11T17:00:38.611Z,10.90
2023-01-11T17:03:27.299Z,11.23
2023-01-11T17:06:17.089Z,11.50
2023-01-11T17:08:50.151Z,11.73
2023-01-11T17:11:30.970Z,11.90
2023-01-11T17:14:36.878Z,12.23
2023-01-11T17:17:16.890Z,18.00
2023-01-11T17:19:49.571Z,27.23
2023-01-11T17:22:23.729Z,14.03
2023-01-11T17:24:57.579Z,11.13
2023-01-11T17:27:33.160Z,11.40
2023-01-11T17:30:05.594Z,11.60
2023-01-11T17:32:42.784Z,12.43
2023-01-11T17:35:19.494Z,11.67
2023-01-11T17:37:52.202Z,11.30
2023-01-11T17:40:28.332Z,11.97
2023-01-11T17:43:29.637Z,23.40
2023-01-11T17:46:02.481Z,13.17
2023-01-11T17:48:36.981Z,13.10
2023-01-11T17:51:09.843Z,16.77
2023-01-11T17:53:42.721Z,13.20
2023-01-11T17:56:41.711Z,12.50
2023-01-11T17:59:19.490Z,14.27
2023-01-11T18:01:51.216Z,12.90
2023-01-11T18:04:40.147Z,15.53
2023-01-11T18:07:16.525Z,11.90
2023-01-11T18:09:49.536Z,14.17
2023-01-11T18:12:22.856Z,13.37
2023-01-11T18:14:56.354Z,13.40
2023-01-11T18:17:39.092Z,14.53
2023-01-11T18:20:42.765Z,12.23
2023-01-11T18:23:24.808Z,12.40
2023-01-11T18:26:32.506Z,12.17
2023-01-11T18:29:02.497Z,12.40
2023-01-11T18:31:32.996Z,11.47
2023-01-11T18:34:07.566Z,10.90
2023-01-11T18:36:40.248Z,11.40
2023-01-11T18:39:14.280Z,11.43
2023-01-11T18:41:57.299Z,15.13
2023-01-11T18:44:31.154Z,15.90
2023-01-11T18:47:03.520Z,13.43
2023-01-11T18:49:33.521Z,13.10
2023-01-11T18:52:06.877Z,12.80
2023-01-11T18:54:37.016Z,13.00
2023-01-11T18:57:07.607Z,16.10
2023-01-11T18:59:37.893Z,13.73
2023-01-11T19:05:14.538Z,14.97
2023-01-11T19:07:47.768Z,34.60
2023-01-11T19:10:19.195Z,16.83
2023-01-11T19:12:49.642Z,13.00
2023-01-11T19:15:19.848Z,15.50
2023-01-11T19:17:49.885Z,16.73
2023-01-11T19:20:20.409Z,12.70
2023-01-11T19:22:53.447Z,12.90
2023-01-11T19:25:23.433Z,15.20
2023-01-11T19:27:54.916Z,13.60
2023-01-11T19:30:26.068Z,16.07
2023-01-11T19:33:11.356Z,21.50
2023-01-11T19:35:43.287Z,16.70
2023-01-11T19:38:18.178Z,17.90
2023-01-11T19:40:50.416Z,37.00
2023-01-11T19:43:20.763Z,20.50
2023-01-11T19:45:58.148Z,17.00
2023-01-11T19:48:28.582Z,19.53
2023-01-11T19:51:04.412Z,22.77
2023-01-11T19:53:38.421Z,19.33
2023-01-11T19:56:11.208Z,25.87
2023-01-11T19:58:41.971Z,25.03
2023-01-11T20:01:14.395Z,17.50
2023-01-11T20:03:44.967Z,16.37
2023-01-11T20:06:14.981Z,15.07
2023-01-11T20:08:47.692Z,19.47
2023-01-11T20:11:18.413Z,20.57
2023-01-11T20:13:50.750Z,15.93
2023-01-11T20:16:23.114Z,18.10
2023-01-11T20:18:54.178Z,13.50
2023-01-11T20:21:25.401Z,18.23
2023-01-11T20:23:59.788Z,14.83
2023-01-11T20:26:30.810Z,16.53
2023-01-11T20:29:01.402Z,14.90
2023-01-11T20:31:35.132Z,14.90
2023-01-11T20:34:08.320Z,16.67
2023-01-11T20:36:39.361Z,12.40
2023-01-11T20:39:12.443Z,14.83
2023-01-11T20:41:51.672Z,17.90
2023-01-11T20:44:24.012Z,13.10
2023-01-11T20:46:55.706Z,13.53
2023-01-11T20:49:28.936Z,17.40
2023-01-11T20:51:59.222Z,13.63
2023-01-11T20:54:31.938Z,36.43
2023-01-11T20:57:05.632Z,27.60
2023-01-11T20:59:35.770Z,13.63
2023-01-11T21:02:07.544Z,13.13
2023-01-11T21:04:38.136Z,14.00
2023-01-11T21:07:08.154Z,14.50
2023-01-11T21:09:40.694Z,14.77
2023-01-11T21:12:30.577Z,12.73
2023-01-11T21:15:00.520Z,12.63
2023-01-11T21:17:30.583Z,13.33
2023-01-11T21:20:14.197Z,17.93
2023-01-11T21:22:44.151Z,7.83
2023-01-11T21:25:17.711Z,9.97
2023-01-11T21:27:47.922Z,18.77
2023-01-11T21:30:18.691Z,13.53
2023-01-11T21:32:48.685Z,12.50
2023-01-11T21:35:18.672Z,10.23
2023-01-11T21:37:48.689Z,13.17
2023-01-11T21:40:21.502Z,11.37
2023-01-11T21:42:51.455Z,14.13
2023-01-11T21:45:21.602Z,15.13
2023-01-11T21:47:51.521Z,14.80
2023-01-11T21:50:21.718Z,15.83
2023-01-11T21:52:51.632Z,10.30
2023-01-11T21:55:25.243Z,14.60
2023-01-11T21:57:55.836Z,16.03
2023-01-11T22:00:27.648Z,11.43
2023-01-11T22:02:59.133Z,11.70
2023-01-11T22:05:29.185Z,16.00
2023-01-11T22:07:59.252Z,14.37
2023-01-11T22:10:33.341Z,16.00
2023-01-11T22:13:03.716Z,14.17
2023-01-11T22:15:33.809Z,10.77
2023-01-11T22:18:03.927Z,17.63
2023-01-11T22:20:34.319Z,15.63
2023-01-11T22:23:06.679Z,14.93
2023-01-11T22:25:40.974Z,20.17
2023-01-11T22:28:10.993Z,19.10
2023-01-11T22:30:40.992Z,13.27
2023-01-11T22:33:11.528Z,13.73
2023-01-11T22:35:43.905Z,15.93
2023-01-11T22:38:13.893Z,15.83
2023-01-11T22:40:46.780Z,15.70
2023-01-11T22:43:16.689Z,13.10
2023-01-11T22:45:47.060Z,10.13
2023-01-11T22:48:17.251Z,14.97
2023-01-11T22:50:47.386Z,17.53
2023-01-11T22:53:17.345Z,13.33
2023-01-11T22:55:50.083Z,19.27
2023-01-11T22:58:20.052Z,11.97
2023-01-11T23:00:50.016Z,15.20
2023-01-11T23:03:20.037Z,15.80
2023-01-11T23:05:50.320Z,11.40
2023-01-11T23:08:20.471Z,18.10
2023-01-11T23:10:53.487Z,16.63
2023-01-11T23:13:35.896Z,14.93
2023-01-11T23:16:05.893Z,20.40
2023-01-11T23:18:36.028Z,21.33
2023-01-11T23:21:06.844Z,13.27
2023-01-11T23:23:38.092Z,14.20
2023-01-11T23:26:11.825Z,16.33
2023-01-11T23:28:42.317Z,16.23
2023-01-11T23:31:18.180Z,10.33
2023-01-11T23:33:48.976Z,16.77
2023-01-11T23:36:20.677Z,16.00
2023-01-11T23:38:51.473Z,10.93
2023-01-11T23:41:37.407Z,14.27
2023-01-11T23:44:09.225Z,8.67
2023-01-11T23:46:52.371Z,12.57
2023-01-11T23:49:22.693Z,11.77
2023-01-11T23:51:52.703Z,9.97
2023-01-11T23:54:23.062Z,10.67
2023-01-11T23:56:55.693Z,13.57
2023-01-11T23:59:25.778Z,11.97
